sensor_id;sensor_type;location;lat;lon;timestamp;P1;durP1;ratioP1;P2;durP2;ratioP2
2874;SDS011;1445;52.600;13.328;2023-04-01T00:00:10;8.57;;;4.55;;
2874;SDS011;1445;52.600;13.328;2023-04-01T00:02:36;7.10;;;4.63;;
2874;SDS011;1445;52.600;13.328;2023-04-01T00:05:02;8.52;;;4.65;;
2874;SDS011;1445;52.600;13.328;2023-04-01T00:07:27;7.53;;;4.82;;
2874;SDS011;1445;52.600;13.328;2023-04-01T00:09:53;8.85;;;5.00;;
2874;SDS011;1445;52.600;13.328;2023-04-01T00:12:18;6.47;;;4.93;;
2874;SDS011;1445;52.600;13.328;2023-04-01T00:14:43;10.75;;;5.07;;
2874;SDS011;1445;52.600;13.328;2023-04-01T00:17:09;6.60;;;4.32;;
2874;SDS011;1445;52.600;13.328;2023-04-01T00:19:35;5.70;;;4.03;;
2874;SDS011;1445;52.600;13.328;2023-04-01T00:22:02;12.18;;;5.40;;
2874;SDS011;1445;52.600;13.328;2023-04-01T00:24:27;6.60;;;4.45;;
2874;SDS011;1445;52.600;13.328;2023-04-01T00:26:52;8.07;;;5.03;;
2874;SDS011;1445;52.600;13.328;2023-04-01T00:29:18;7.43;;;4.72;;
2874;SDS011;1445;52.600;13.328;2023-04-01T00:31:43;9.65;;;4.85;;
2874;SDS011;1445;52.600;13.328;2023-04-01T00:34:09;8.35;;;4.75;;
2874;SDS011;1445;52.600;13.328;2023-04-01T00:36:34;7.35;;;4.43;;
2874;SDS011;1445;52.600;13.328;2023-04-01T00:39:00;6.47;;;4.53;;
2874;SDS011;1445;52.600;13.328;2023-04-01T00:41:26;7.57;;;4.70;;
2874;SDS011;1445;52.600;13.328;2023-04-01T00:43:51;4.80;;;4.00;;
2874;SDS011;1445;52.600;13.328;2023-04-01T00:46:17;7.65;;;4.32;;
2874;SDS011;1445;52.600;13.328;2023-04-01T00:48:53;6.55;;;4.47;;
2874;SDS011;1445;52.600;13.328;2023-04-01T00:51:22;8.23;;;4.13;;
2874;SDS011;1445;52.600;13.328;2023-04-01T00:53:51;6.35;;;3.95;;
2874;SDS011;1445;52.600;13.328;2023-04-01T00:56:22;7.25;;;3.97;;
2874;SDS011;1445;52.600;13.328;2023-04-01T00:58:54;8.85;;;3.70;;
2874;SDS011;1445;52.600;13.328;2023-04-01T01:01:22;5.85;;;3.47;;
2874;SDS011;1445;52.600;13.328;2023-04-01T01:03:49;4.63;;;3.67;;
2874;SDS011;1445;52.600;13.328;2023-04-01T01:11:43;6.57;;;3.70;;
2874;SDS011;1445;52.600;13.328;2023-04-01T01:23:09;5.28;;;4.20;;
2874;SDS011;1445;52.600;13.328;2023-04-01T01:34:36;7.00;;;4.80;;
2874;SDS011;1445;52.600;13.328;2023-04-01T01:36:41;9.02;;;4.90;;
2874;SDS011;1445;52.600;13.328;2023-04-01T01:39:10;8.45;;;4.13;;
2874;SDS011;1445;52.600;13.328;2023-04-01T01:41:39;6.15;;;4.18;;
2874;SDS011;1445;52.600;13.328;2023-04-01T01:44:08;6.53;;;3.92;;
2874;SDS011;1445;52.600;13.328;2023-04-01T01:46:36;5.68;;;3.97;;
2874;SDS011;1445;52.600;13.328;2023-04-01T01:49:04;4.95;;;3.72;;
2874;SDS011;1445;52.600;13.328;2023-04-01T01:51:32;8.55;;;4.05;;
2874;SDS011;1445;52.600;13.328;2023-04-01T01:53:58;8.20;;;3.75;;
2874;SDS011;1445;52.600;13.328;2023-04-01T01:56:24;7.70;;;3.80;;
2874;SDS011;1445;52.600;13.328;2023-04-01T01:58:55;8.07;;;4.00;;
2874;SDS011;1445;52.600;13.328;2023-04-01T02:01:29;6.20;;;4.03;;
2874;SDS011;1445;52.600;13.328;2023-04-01T02:03:58;8.07;;;3.90;;
2874;SDS011;1445;52.600;13.328;2023-04-01T02:06:25;9.02;;;4.03;;
2874;SDS011;1445;52.600;13.328;2023-04-01T02:08:57;7.82;;;4.10;;
2874;SDS011;1445;52.600;13.328;2023-04-01T02:11:35;7.20;;;4.20;;
2874;SDS011;1445;52.600;13.328;2023-04-01T02:14:05;10.13;;;4.35;;
2874;SDS011;1445;52.600;13.328;2023-04-01T02:18:59;7.45;;;4.18;;
2874;SDS011;1445;52.600;13.328;2023-04-01T02:21:28;6.32;;;3.92;;
2874;SDS011;1445;52.600;13.328;2023-04-01T02:23:57;7.43;;;4.20;;
2874;SDS011;1445;52.600;13.328;2023-04-01T02:26:25;8.70;;;3.95;;
2874;SDS011;1445;52.600;13.328;2023-04-01T02:28:52;7.68;;;4.20;;
2874;SDS011;1445;52.600;13.328;2023-04-01T02:31:19;7.07;;;4.07;;
2874;SDS011;1445;52.600;13.328;2023-04-01T02:33:46;7.55;;;4.50;;
2874;SDS011;1445;52.600;13.328;2023-04-01T02:36:13;8.15;;;4.03;;
2874;SDS011;1445;52.600;13.328;2023-04-01T02:38:41;7.57;;;4.00;;
2874;SDS011;1445;52.600;13.328;2023-04-01T02:41:07;7.60;;;4.00;;
2874;SDS011;1445;52.600;13.328;2023-04-01T02:43:33;9.05;;;4.75;;
2874;SDS011;1445;52.600;13.328;2023-04-01T02:45:58;7.22;;;4.18;;
2874;SDS011;1445;52.600;13.328;2023-04-01T02:48:24;10.50;;;4.50;;
2874;SDS011;1445;52.600;13.328;2023-04-01T02:50:50;10.65;;;4.82;;
2874;SDS011;1445;52.600;13.328;2023-04-01T02:53:16;8.23;;;3.95;;
2874;SDS011;1445;52.600;13.328;2023-04-01T02:55:41;7.20;;;4.30;;
2874;SDS011;1445;52.600;13.328;2023-04-01T02:58:07;7.53;;;4.35;;
2874;SDS011;1445;52.600;13.328;2023-04-01T03:00:32;9.90;;;4.97;;
2874;SDS011;1445;52.600;13.328;2023-04-01T03:02:58;8.90;;;4.03;;
2874;SDS011;1445;52.600;13.328;2023-04-01T03:05:23;10.15;;;4.53;;
2874;SDS011;1445;52.600;13.328;2023-04-01T03:07:49;8.27;;;4.60;;
2874;SDS011;1445;52.600;13.328;2023-04-01T03:10:15;7.70;;;4.45;;
2874;SDS011;1445;52.600;13.328;2023-04-01T03:12:40;6.63;;;3.92;;
2874;SDS011;1445;52.600;13.328;2023-04-01T03:15:06;7.20;;;4.25;;
2874;SDS011;1445;52.600;13.328;2023-04-01T03:17:32;7.50;;;4.57;;
2874;SDS011;1445;52.600;13.328;2023-04-01T03:19:57;7.78;;;4.65;;
2874;SDS011;1445;52.600;13.328;2023-04-01T03:22:23;9.77;;;4.80;;
2874;SDS011;1445;52.600;13.328;2023-04-01T03:24:48;8.45;;;4.60;;
2874;SDS011;1445;52.600;13.328;2023-04-01T03:27:14;8.85;;;5.60;;
2874;SDS011;1445;52.600;13.328;2023-04-01T03:29:40;8.10;;;5.00;;
2874;SDS011;1445;52.600;13.328;2023-04-01T03:32:05;6.22;;;4.13;;
2874;SDS011;1445;52.600;13.328;2023-04-01T03:34:31;7.80;;;5.07;;
2874;SDS011;1445;52.600;13.328;2023-04-01T03:36:57;7.85;;;4.82;;
2874;SDS011;1445;52.600;13.328;2023-04-01T03:39:22;8.30;;;4.85;;
2874;SDS011;1445;52.600;13.328;2023-04-01T03:41:48;9.98;;;5.10;;
2874;SDS011;1445;52.600;13.328;2023-04-01T03:44:13;9.60;;;4.65;;
2874;SDS011;1445;52.600;13.328;2023-04-01T03:46:39;9.07;;;4.97;;
2874;SDS011;1445;52.600;13.328;2023-04-01T03:49:09;9.25;;;4.95;;
2874;SDS011;1445;52.600;13.328;2023-04-01T03:51:38;8.20;;;4.78;;
2874;SDS011;1445;52.600;13.328;2023-04-01T03:54:04;7.85;;;5.20;;
2874;SDS011;1445;52.600;13.328;2023-04-01T03:56:30;8.23;;;4.85;;
2874;SDS011;1445;52.600;13.328;2023-04-01T03:58:56;9.57;;;5.60;;
2874;SDS011;1445;52.600;13.328;2023-04-01T04:01:22;9.75;;;5.25;;
2874;SDS011;1445;52.600;13.328;2023-04-01T04:03:48;11.27;;;5.78;;
2874;SDS011;1445;52.600;13.328;2023-04-01T04:06:15;12.63;;;5.88;;
2874;SDS011;1445;52.600;13.328;2023-04-01T04:08:42;8.02;;;4.97;;
2874;SDS011;1445;52.600;13.328;2023-04-01T04:11:08;10.68;;;5.40;;
2874;SDS011;1445;52.600;13.328;2023-04-01T04:13:33;8.32;;;4.45;;
2874;SDS011;1445;52.600;13.328;2023-04-01T04:15:59;9.25;;;5.13;;
2874;SDS011;1445;52.600;13.328;2023-04-01T04:18:24;11.93;;;5.32;;
2874;SDS011;1445;52.600;13.328;2023-04-01T04:20:50;10.73;;;5.05;;
2874;SDS011;1445;52.600;13.328;2023-04-01T04:23:16;8.43;;;5.10;;
2874;SDS011;1445;52.600;13.328;2023-04-01T04:25:52;8.15;;;5.22;;
2874;SDS011;1445;52.600;13.328;2023-04-01T04:28:34;11.18;;;5.15;;
2874;SDS011;1445;52.600;13.328;2023-04-01T04:31:00;9.55;;;4.93;;
2874;SDS011;1445;52.600;13.328;2023-04-01T04:33:26;8.75;;;4.80;;
2874;SDS011;1445;52.600;13.328;2023-04-01T04:35:55;8.07;;;4.80;;
2874;SDS011;1445;52.600;13.328;2023-04-01T04:38:22;12.15;;;5.95;;
2874;SDS011;1445;52.600;13.328;2023-04-01T04:40:47;11.70;;;5.95;;
2874;SDS011;1445;52.600;13.328;2023-04-01T04:43:13;12.60;;;5.60;;
2874;SDS011;1445;52.600;13.328;2023-04-01T04:45:40;12.55;;;5.20;;
2874;SDS011;1445;52.600;13.328;2023-04-01T04:48:07;11.40;;;6.00;;
2874;SDS011;1445;52.600;13.328;2023-04-01T04:50:34;10.18;;;5.45;;
2874;SDS011;1445;52.600;13.328;2023-04-01T04:53:00;12.15;;;5.57;;
2874;SDS011;1445;52.600;13.328;2023-04-01T04:55:28;13.07;;;6.57;;
2874;SDS011;1445;52.600;13.328;2023-04-01T04:57:53;9.40;;;5.40;;
2874;SDS011;1445;52.600;13.328;2023-04-01T05:00:19;10.32;;;5.60;;
2874;SDS011;1445;52.600;13.328;2023-04-01T05:02:45;10.15;;;5.50;;
2874;SDS011;1445;52.600;13.328;2023-04-01T05:05:10;12.05;;;5.53;;
2874;SDS011;1445;52.600;13.328;2023-04-01T05:07:36;10.18;;;5.68;;
2874;SDS011;1445;52.600;13.328;2023-04-01T05:10:02;7.53;;;5.25;;
2874;SDS011;1445;52.600;13.328;2023-04-01T05:12:27;9.93;;;5.78;;
2874;SDS011;1445;52.600;13.328;2023-04-01T05:14:53;10.98;;;6.07;;
2874;SDS011;1445;52.600;13.328;2023-04-01T05:17:19;11.00;;;5.57;;
2874;SDS011;1445;52.600;13.328;2023-04-01T05:19:44;8.90;;;5.63;;
2874;SDS011;1445;52.600;13.328;2023-04-01T05:22:10;9.85;;;5.30;;
2874;SDS011;1445;52.600;13.328;2023-04-01T05:24:35;8.77;;;5.80;;
2874;SDS011;1445;52.600;13.328;2023-04-01T05:27:00;10.50;;;5.78;;
2874;SDS011;1445;52.600;13.328;2023-04-01T05:29:26;8.15;;;5.07;;
2874;SDS011;1445;52.600;13.328;2023-04-01T05:31:51;14.57;;;7.25;;
2874;SDS011;1445;52.600;13.328;2023-04-01T05:34:17;12.75;;;7.00;;
2874;SDS011;1445;52.600;13.328;2023-04-01T05:36:43;11.00;;;6.72;;
2874;SDS011;1445;52.600;13.328;2023-04-01T05:39:09;11.52;;;7.13;;
2874;SDS011;1445;52.600;13.328;2023-04-01T05:41:38;14.02;;;7.05;;
2874;SDS011;1445;52.600;13.328;2023-04-01T05:44:04;12.05;;;7.10;;
2874;SDS011;1445;52.600;13.328;2023-04-01T05:46:30;9.73;;;6.82;;
2874;SDS011;1445;52.600;13.328;2023-04-01T05:48:56;12.57;;;7.05;;
2874;SDS011;1445;52.600;13.328;2023-04-01T05:51:22;10.27;;;6.78;;
2874;SDS011;1445;52.600;13.328;2023-04-01T05:53:48;10.45;;;6.63;;
2874;SDS011;1445;52.600;13.328;2023-04-01T05:56:13;11.88;;;6.63;;
2874;SDS011;1445;52.600;13.328;2023-04-01T05:58:39;10.30;;;6.53;;
2874;SDS011;1445;52.600;13.328;2023-04-01T06:01:06;9.48;;;5.85;;
2874;SDS011;1445;52.600;13.328;2023-04-01T06:03:34;13.65;;;6.90;;
2874;SDS011;1445;52.600;13.328;2023-04-01T06:06:00;11.50;;;6.28;;
2874;SDS011;1445;52.600;13.328;2023-04-01T06:08:26;9.98;;;6.70;;
2874;SDS011;1445;52.600;13.328;2023-04-01T06:11:04;9.95;;;6.13;;
2874;SDS011;1445;52.600;13.328;2023-04-01T06:13:46;10.60;;;6.13;;
2874;SDS011;1445;52.600;13.328;2023-04-01T06:40:53;8.75;;;5.47;;
2874;SDS011;1445;52.600;13.328;2023-04-01T06:46:09;8.63;;;5.55;;
2874;SDS011;1445;52.600;13.328;2023-04-01T06:54:40;11.45;;;5.68;;
2874;SDS011;1445;52.600;13.328;2023-04-01T06:57:23;10.23;;;6.47;;
2874;SDS011;1445;52.600;13.328;2023-04-01T06:59:57;9.40;;;5.80;;
2874;SDS011;1445;52.600;13.328;2023-04-01T07:02:28;12.02;;;5.97;;
2874;SDS011;1445;52.600;13.328;2023-04-01T07:05:00;12.02;;;6.25;;
2874;SDS011;1445;52.600;13.328;2023-04-01T07:07:29;10.02;;;5.95;;
2874;SDS011;1445;52.600;13.328;2023-04-01T07:10:09;12.73;;;7.03;;
2874;SDS011;1445;52.600;13.328;2023-04-01T07:13:00;10.77;;;6.40;;
2874;SDS011;1445;52.600;13.328;2023-04-01T07:15:31;11.25;;;6.38;;
2874;SDS011;1445;52.600;13.328;2023-04-01T07:18:03;9.80;;;6.30;;
2874;SDS011;1445;52.600;13.328;2023-04-01T07:23:28;10.57;;;6.80;;
2874;SDS011;1445;52.600;13.328;2023-04-01T07:26:01;10.75;;;6.97;;
2874;SDS011;1445;52.600;13.328;2023-04-01T07:28:39;13.48;;;6.70;;
2874;SDS011;1445;52.600;13.328;2023-04-01T07:31:07;13.02;;;7.18;;
2874;SDS011;1445;52.600;13.328;2023-04-01T07:33:43;11.70;;;7.30;;
2874;SDS011;1445;52.600;13.328;2023-04-01T07:38:59;15.35;;;7.97;;
2874;SDS011;1445;52.600;13.328;2023-04-01T07:41:38;13.45;;;7.80;;
2874;SDS011;1445;52.600;13.328;2023-04-01T07:50:31;13.13;;;8.35;;
2874;SDS011;1445;52.600;13.328;2023-04-01T08:03:48;4.78;;;2.92;;
2874;SDS011;1445;52.600;13.328;2023-04-01T08:14:56;5.07;;;3.28;;
2874;SDS011;1445;52.600;13.328;2023-04-01T08:17:49;5.55;;;3.35;;
2874;SDS011;1445;52.600;13.328;2023-04-01T08:20:56;6.03;;;4.03;;
2874;SDS011;1445;52.600;13.328;2023-04-01T08:23:58;6.00;;;3.90;;
2874;SDS011;1445;52.600;13.328;2023-04-01T08:26:26;8.00;;;4.18;;
2874;SDS011;1445;52.600;13.328;2023-04-01T08:29:02;5.63;;;3.67;;
2874;SDS011;1445;52.600;13.328;2023-04-01T08:34:16;9.00;;;5.38;;
2874;SDS011;1445;52.600;13.328;2023-04-01T08:36:59;10.77;;;6.45;;
2874;SDS011;1445;52.600;13.328;2023-04-01T08:39:32;11.43;;;6.30;;
2874;SDS011;1445;52.600;13.328;2023-04-01T08:47:46;12.68;;;7.10;;
2874;SDS011;1445;52.600;13.328;2023-04-01T08:55:56;9.27;;;7.07;;
2874;SDS011;1445;52.600;13.328;2023-04-01T09:15:29;11.95;;;8.70;;
2874;SDS011;1445;52.600;13.328;2023-04-01T09:32:30;10.73;;;7.88;;
2874;SDS011;1445;52.600;13.328;2023-04-01T09:40:57;10.95;;;7.70;;
2874;SDS011;1445;52.600;13.328;2023-04-01T09:54:50;9.20;;;6.55;;
2874;SDS011;1445;52.600;13.328;2023-04-01T10:11:31;9.88;;;7.63;;
2874;SDS011;1445;52.600;13.328;2023-04-01T10:17:16;10.80;;;8.03;;
2874;SDS011;1445;52.600;13.328;2023-04-01T10:20:01;10.98;;;7.53;;
2874;SDS011;1445;52.600;13.328;2023-04-01T10:33:57;10.13;;;7.32;;
2874;SDS011;1445;52.600;13.328;2023-04-01T11:15:55;9.27;;;7.10;;
2874;SDS011;1445;52.600;13.328;2023-04-01T11:40:41;9.13;;;7.20;;
2874;SDS011;1445;52.600;13.328;2023-04-01T11:51:47;11.85;;;8.82;;
2874;SDS011;1445;52.600;13.328;2023-04-01T11:54:42;11.23;;;8.60;;
2874;SDS011;1445;52.600;13.328;2023-04-01T12:03:06;12.52;;;10.10;;
2874;SDS011;1445;52.600;13.328;2023-04-01T12:11:29;12.18;;;9.18;;
2874;SDS011;1445;52.600;13.328;2023-04-01T12:14:07;14.13;;;10.35;;
2874;SDS011;1445;52.600;13.328;2023-04-01T12:27:12;10.68;;;8.63;;
2874;SDS011;1445;52.600;13.328;2023-04-01T12:32:56;12.60;;;9.20;;
2874;SDS011;1445;52.600;13.328;2023-04-01T12:41:09;12.45;;;9.35;;
2874;SDS011;1445;52.600;13.328;2023-04-01T12:46:49;12.60;;;9.75;;
2874;SDS011;1445;52.600;13.328;2023-04-01T13:14:26;14.43;;;9.80;;
2874;SDS011;1445;52.600;13.328;2023-04-01T13:28:03;12.80;;;8.93;;
2874;SDS011;1445;52.600;13.328;2023-04-01T13:36:46;8.80;;;6.57;;
2874;SDS011;1445;52.600;13.328;2023-04-01T13:39:17;6.70;;;5.28;;
2874;SDS011;1445;52.600;13.328;2023-04-01T13:42:34;8.13;;;5.97;;
2874;SDS011;1445;52.600;13.328;2023-04-01T14:01:50;7.18;;;5.32;;
2874;SDS011;1445;52.600;13.328;2023-04-01T14:20:02;5.13;;;4.07;;
2874;SDS011;1445;52.600;13.328;2023-04-01T14:22:34;5.28;;;4.30;;
2874;SDS011;1445;52.600;13.328;2023-04-01T14:33:16;4.47;;;3.53;;
2874;SDS011;1445;52.600;13.328;2023-04-01T14:38:46;5.10;;;3.55;;
2874;SDS011;1445;52.600;13.328;2023-04-01T14:43:59;3.95;;;3.22;;
2874;SDS011;1445;52.600;13.328;2023-04-01T14:49:35;6.90;;;4.10;;
2874;SDS011;1445;52.600;13.328;2023-04-01T14:54:46;4.93;;;3.97;;
2874;SDS011;1445;52.600;13.328;2023-04-01T14:57:29;8.43;;;4.93;;
2874;SDS011;1445;52.600;13.328;2023-04-01T15:08:21;7.00;;;5.20;;
2874;SDS011;1445;52.600;13.328;2023-04-01T15:11:06;8.80;;;5.68;;
2874;SDS011;1445;52.600;13.328;2023-04-01T15:28:19;7.20;;;5.03;;
2874;SDS011;1445;52.600;13.328;2023-04-01T15:38:50;7.65;;;4.97;;
2874;SDS011;1445;52.600;13.328;2023-04-01T15:44:57;5.97;;;4.75;;
2874;SDS011;1445;52.600;13.328;2023-04-01T15:47:07;6.85;;;5.22;;
2874;SDS011;1445;52.600;13.328;2023-04-01T15:49:45;5.80;;;5.00;;
2874;SDS011;1445;52.600;13.328;2023-04-01T15:52:23;9.25;;;5.63;;
2874;SDS011;1445;52.600;13.328;2023-04-01T16:00:06;8.05;;;6.05;;
2874;SDS011;1445;52.600;13.328;2023-04-01T16:19:41;7.55;;;4.47;;
2874;SDS011;1445;52.600;13.328;2023-04-01T16:33:50;7.28;;;5.10;;
2874;SDS011;1445;52.600;13.328;2023-04-01T16:36:24;5.75;;;5.03;;
2874;SDS011;1445;52.600;13.328;2023-04-01T16:39:08;11.20;;;5.70;;
2874;SDS011;1445;52.600;13.328;2023-04-01T16:41:37;7.00;;;4.97;;
2874;SDS011;1445;52.600;13.328;2023-04-01T16:46:38;9.85;;;5.55;;
2874;SDS011;1445;52.600;13.328;2023-04-01T17:02:28;6.53;;;4.85;;
2874;SDS011;1445;52.600;13.328;2023-04-01T17:05:04;5.73;;;3.63;;
2874;SDS011;1445;52.600;13.328;2023-04-01T17:10:30;4.82;;;3.95;;
2874;SDS011;1445;52.600;13.328;2023-04-01T17:21:13;4.93;;;3.50;;
2874;SDS011;1445;52.600;13.328;2023-04-01T17:23:53;3.72;;;3.30;;
2874;SDS011;1445;52.600;13.328;2023-04-01T17:26:33;4.95;;;3.47;;
2874;SDS011;1445;52.600;13.328;2023-04-01T17:34:52;4.90;;;3.45;;
2874;SDS011;1445;52.600;13.328;2023-04-01T17:37:26;5.53;;;3.95;;
2874;SDS011;1445;52.600;13.328;2023-04-01T17:45:53;4.53;;;3.95;;
2874;SDS011;1445;52.600;13.328;2023-04-01T17:48:45;5.15;;;3.40;;
2874;SDS011;1445;52.600;13.328;2023-04-01T18:05:33;5.03;;;3.88;;
2874;SDS011;1445;52.600;13.328;2023-04-01T18:19:31;7.28;;;4.65;;
2874;SDS011;1445;52.600;13.328;2023-04-01T18:25:14;7.53;;;4.88;;
2874;SDS011;1445;52.600;13.328;2023-04-01T18:36:13;7.00;;;5.45;;
2874;SDS011;1445;52.600;13.328;2023-04-01T18:39:23;8.80;;;5.95;;
2874;SDS011;1445;52.600;13.328;2023-04-01T18:41:36;8.23;;;5.88;;
2874;SDS011;1445;52.600;13.328;2023-04-01T18:47:02;9.35;;;5.57;;
2874;SDS011;1445;52.600;13.328;2023-04-01T18:49:43;8.48;;;5.60;;
2874;SDS011;1445;52.600;13.328;2023-04-01T18:55:29;9.53;;;5.77;;
2874;SDS011;1445;52.600;13.328;2023-04-01T18:58:12;7.18;;;5.20;;
2874;SDS011;1445;52.600;13.328;2023-04-01T19:01:05;9.00;;;6.03;;
2874;SDS011;1445;52.600;13.328;2023-04-01T19:06:42;8.00;;;5.88;;
2874;SDS011;1445;52.600;13.328;2023-04-01T19:09:23;10.00;;;6.63;;
2874;SDS011;1445;52.600;13.328;2023-04-01T19:14:51;9.43;;;5.95;;
2874;SDS011;1445;52.600;13.328;2023-04-01T19:20:16;10.95;;;6.68;;
2874;SDS011;1445;52.600;13.328;2023-04-01T19:25:53;13.02;;;7.65;;
2874;SDS011;1445;52.600;13.328;2023-04-01T19:36:56;14.07;;;8.73;;
2874;SDS011;1445;52.600;13.328;2023-04-01T19:45:07;18.70;;;9.13;;
2874;SDS011;1445;52.600;13.328;2023-04-01T19:52:55;16.70;;;9.75;;
2874;SDS011;1445;52.600;13.328;2023-04-01T19:55:41;15.45;;;9.63;;
2874;SDS011;1445;52.600;13.328;2023-04-01T19:58:16;18.27;;;10.95;;
2874;SDS011;1445;52.600;13.328;2023-04-01T20:00:59;19.57;;;13.63;;
2874;SDS011;1445;52.600;13.328;2023-04-01T20:06:00;20.40;;;12.98;;
2874;SDS011;1445;52.600;13.328;2023-04-01T20:25:16;21.05;;;12.57;;
2874;SDS011;1445;52.600;13.328;2023-04-01T20:27:54;15.82;;;11.38;;
2874;SDS011;1445;52.600;13.328;2023-04-01T20:41:33;24.02;;;12.90;;
2874;SDS011;1445;52.600;13.328;2023-04-01T20:44:08;19.30;;;10.45;;
2874;SDS011;1445;52.600;13.328;2023-04-01T20:49:23;17.20;;;10.05;;
2874;SDS011;1445;52.600;13.328;2023-04-01T20:55:00;18.77;;;10.40;;
2874;SDS011;1445;52.600;13.328;2023-04-01T21:08:51;13.98;;;8.68;;
2874;SDS011;1445;52.600;13.328;2023-04-01T21:13:56;17.48;;;8.38;;
2874;SDS011;1445;52.600;13.328;2023-04-01T21:19:21;12.10;;;8.00;;
2874;SDS011;1445;52.600;13.328;2023-04-01T21:37:58;12.30;;;7.20;;
2874;SDS011;1445;52.600;13.328;2023-04-01T21:40:48;13.43;;;7.55;;
2874;SDS011;1445;52.600;13.328;2023-04-01T21:52:18;11.88;;;8.10;;
2874;SDS011;1445;52.600;13.328;2023-04-01T21:58:46;10.63;;;8.07;;
2874;SDS011;1445;52.600;13.328;2023-04-01T22:06:13;12.25;;;8.50;;
2874;SDS011;1445;52.600;13.328;2023-04-01T22:09:01;14.43;;;8.75;;
2874;SDS011;1445;52.600;13.328;2023-04-01T22:19:55;13.15;;;9.50;;
2874;SDS011;1445;52.600;13.328;2023-04-01T22:22:22;12.95;;;8.95;;
2874;SDS011;1445;52.600;13.328;2023-04-01T22:27:52;14.20;;;9.15;;
2874;SDS011;1445;52.600;13.328;2023-04-01T22:30:45;15.27;;;10.07;;
2874;SDS011;1445;52.600;13.328;2023-04-01T22:38:39;11.02;;;8.38;;
2874;SDS011;1445;52.600;13.328;2023-04-01T22:44:00;12.60;;;9.80;;
2874;SDS011;1445;52.600;13.328;2023-04-01T22:54:43;10.90;;;7.80;;
2874;SDS011;1445;52.600;13.328;2023-04-01T23:00:05;9.07;;;6.28;;
2874;SDS011;1445;52.600;13.328;2023-04-01T23:02:46;7.45;;;5.75;;
2874;SDS011;1445;52.600;13.328;2023-04-01T23:05:33;8.70;;;5.93;;
2874;SDS011;1445;52.600;13.328;2023-04-01T23:08:26;9.30;;;5.38;;
2874;SDS011;1445;52.600;13.328;2023-04-01T23:11:00;8.43;;;5.80;;
2874;SDS011;1445;52.600;13.328;2023-04-01T23:13:31;8.98;;;6.10;;
2874;SDS011;1445;52.600;13.328;2023-04-01T23:16:09;8.80;;;5.90;;
2874;SDS011;1445;52.600;13.328;2023-04-01T23:24:21;10.23;;;7.15;;
2874;SDS011;1445;52.600;13.328;2023-04-01T23:29:41;7.88;;;5.05;;
2874;SDS011;1445;52.600;13.328;2023-04-01T23:32:15;7.68;;;4.72;;
2874;SDS011;1445;52.600;13.328;2023-04-01T23:34:53;9.45;;;5.20;;
2874;SDS011;1445;52.600;13.328;2023-04-01T23:37:21;7.25;;;5.22;;
2874;SDS011;1445;52.600;13.328;2023-04-01T23:39:52;6.35;;;4.60;;
2874;SDS011;1445;52.600;13.328;2023-04-01T23:44:56;9.40;;;5.60;;
2874;SDS011;1445;52.600;13.328;2023-04-01T23:47:30;8.27;;;6.32;;
2874;SDS011;1445;52.600;13.328;2023-04-01T23:49:59;8.15;;;5.63;;
2874;SDS011;1445;52.600;13.328;2023-04-01T23:52:40;9.35;;;6.05;;
2874;SDS011;1445;52.600;13.328;2023-04-01T23:57:36;6.43;;;5.32;;
